Time;durP1;ratioP1;P1;durP2;ratioP2;P2;SDS_P1;SDS_P2;PMS_P1;PMS_P2;Temp;Humidity;BMP_temperature;BMP_pressure;BME280_temperature;BME280_humidity;BME280_pressure;Samples;Min_cycle;Max_cycle;Signal;HPM_P1;HPM_P2
2023/09/02 00:00:24;;;;;;;3.87;2.27;;;16.50;98.00;;;;;;5071427;28;20460;-69
2023/09/02 00:02:51;;;;;;;4.10;2.30;;;16.50;98.00;;;;;;5071645;28;20449;-69
2023/09/02 00:05:18;;;;;;;3.13;2.10;;;16.50;98.00;;;;;;5071381;28;20444;-69
2023/09/02 00:07:45;;;;;;;4.07;2.50;;;16.30;98.00;;;;;;5053762;28;20506;-69
2023/09/02 00:10:12;;;;;;;3.80;2.60;;;16.30;98.00;;;;;;5071331;28;20456;-69
2023/09/02 00:12:41;;;;;;;3.50;2.40;;;16.20;98.00;;;;;;5053654;28;20491;-69
2023/09/02 00:15:10;;;;;;;7.10;2.53;;;16.20;98.00;;;;;;5071314;28;20468;-69
2023/09/02 00:17:37;;;;;;;3.00;2.30;;;16.20;98.00;;;;;;5071274;28;20986;-69
2023/09/02 00:20:07;;;;;;;2.83;2.23;;;16.30;98.00;;;;;;5071216;28;20503;-69
2023/09/02 00:22:34;;;;;;;6.70;2.47;;;16.30;98.00;;;;;;5071158;28;20959;-69
2023/09/02 00:25:01;;;;;;;3.80;2.50;;;16.20;98.00;;;;;;5071298;28;20460;-69
2023/09/02 00:27:28;;;;;;;3.53;2.50;;;16.30;98.00;;;;;;5071099;28;20461;-69
2023/09/02 00:29:56;;;;;;;4.70;2.57;;;16.30;98.00;;;;;;5071191;28;20464;-69
2023/09/02 00:32:24;;;;;;;3.50;2.53;;;16.20;98.00;;;;;;5071289;28;20938;-69
2023/09/02 00:34:53;;;;;;;3.90;2.30;;;16.20;98.00;;;;;;5070535;28;21008;-69
2023/09/02 00:37:20;;;;;;;3.30;2.37;;;16.20;98.00;;;;;;5070835;28;20445;-69
2023/09/02 00:39:47;;;;;;;4.50;2.30;;;16.20;98.00;;;;;;5071089;28;20481;-69
2023/09/02 00:42:17;;;;;;;5.57;2.40;;;16.20;98.00;;;;;;5071417;28;20813;-69
2023/09/02 00:44:44;;;;;;;3.80;2.57;;;16.10;98.00;;;;;;5053603;28;20842;-69
2023/09/02 00:47:11;;;;;;;6.90;2.60;;;16.00;98.00;;;;;;5071072;28;20445;-69
2023/09/02 00:49:40;;;;;;;4.13;2.50;;;16.00;98.00;;;;;;5070977;28;20479;-69
2023/09/02 00:52:16;;;;;;;3.90;2.70;;;16.00;98.00;;;;;;5071412;28;20510;-69
2023/09/02 00:54:43;;;;;;;3.20;2.20;;;16.00;98.00;;;;;;5071020;28;20453;-69
2023/09/02 00:57:11;;;;;;;4.00;2.40;;;16.00;98.00;;;;;;5071593;28;20461;-69
2023/09/02 00:59:39;;;;;;;11.20;3.30;;;15.90;98.00;;;;;;5071238;28;20496;-69
2023/09/02 01:02:06;;;;;;;10.83;3.13;;;15.90;98.00;;;;;;5053065;28;20460;-69
2023/09/02 01:04:34;;;;;;;5.20;3.10;;;16.00;98.00;;;;;;5070782;28;20456;-69
2023/09/02 01:07:04;;;;;;;7.00;3.00;;;15.90;98.00;;;;;;5070838;28;20498;-69
2023/09/02 01:09:32;;;;;;;4.27;2.90;;;16.00;98.00;;;;;;5070668;28;20461;-69
2023/09/02 01:11:59;;;;;;;7.50;3.00;;;16.00;98.00;;;;;;5071383;28;20449;-69
2023/09/02 01:14:26;;;;;;;6.80;2.80;;;16.00;98.00;;;;;;5071868;28;20874;-69
2023/09/02 01:16:53;;;;;;;3.00;2.50;;;15.80;98.00;;;;;;5071300;28;20506;-69
2023/09/02 01:19:22;;;;;;;3.57;2.40;;;15.90;98.00;;;;;;5070754;28;20828;-69
2023/09/02 01:22:12;;;;;;;2.80;2.10;;;15.90;98.00;;;;;;5071998;28;20456;-69
2023/09/02 01:24:55;;;;;;;2.80;2.13;;;15.90;98.00;;;;;;5071575;28;20799;-69
2023/09/02 01:27:29;;;;;;;3.47;2.30;;;15.90;98.00;;;;;;5070747;28;20489;-69
2023/09/02 01:30:03;;;;;;;2.70;2.10;;;15.90;98.00;;;;;;5070741;28;20448;-69
2023/09/02 01:32:35;;;;;;;2.37;2.10;;;16.10;98.00;;;;;;5070491;28;20518;-69
2023/09/02 01:35:06;;;;;;;7.60;2.77;;;16.00;98.00;;;;;;5070920;28;20456;-69
2023/09/02 01:37:35;;;;;;;5.23;2.60;;;16.00;98.00;;;;;;5053569;28;20453;-69
2023/09/02 01:40:15;;;;;;;2.77;2.07;;;16.00;98.00;;;;;;5070713;28;20824;-69
2023/09/02 01:42:44;;;;;;;4.00;2.60;;;15.80;98.00;;;;;;5050616;28;20465;-69
2023/09/02 01:45:13;;;;;;;3.60;2.30;;;15.80;98.00;;;;;;5050554;28;20452;-69
2023/09/02 01:47:40;;;;;;;3.33;2.20;;;15.60;98.00;;;;;;5052684;28;20958;-69
2023/09/02 01:50:10;;;;;;;5.30;2.47;;;15.70;98.00;;;;;;5054007;28;20810;-69
2023/09/02 01:52:38;;;;;;;3.50;2.37;;;15.50;98.00;;;;;;5054381;28;20863;-69
2023/09/02 01:55:07;;;;;;;3.37;2.10;;;15.50;98.00;;;;;;5036311;28;20497;-69
2023/09/02 01:57:34;;;;;;;3.40;2.20;;;15.70;98.00;;;;;;5053871;28;20450;-69
2023/09/02 02:00:04;;;;;;;3.80;2.60;;;15.80;98.00;;;;;;5053943;28;20833;-69
2023/09/02 02:02:31;;;;;;;2.77;2.30;;;15.80;98.00;;;;;;5054081;28;20457;-69
2023/09/02 02:05:05;;;;;;;5.37;2.30;;;15.80;98.00;;;;;;5053785;28;20457;-68
2023/09/02 02:07:36;;;;;;;3.07;2.30;;;15.90;98.00;;;;;;5036966;28;20815;-69
2023/09/02 02:10:08;;;;;;;5.40;2.30;;;15.80;98.00;;;;;;5053922;28;20450;-69
2023/09/02 02:12:36;;;;;;;6.03;2.60;;;15.80;98.00;;;;;;5053826;28;20442;-69
2023/09/02 02:15:10;;;;;;;3.33;2.50;;;15.80;98.00;;;;;;5035868;28;21133;-69
2023/09/02 02:17:37;;;;;;;6.73;2.30;;;15.80;98.00;;;;;;5053690;28;20835;-69
2023/09/02 02:20:06;;;;;;;3.40;2.43;;;15.70;98.00;;;;;;5053599;28;20480;-69
2023/09/02 02:22:34;;;;;;;4.83;2.70;;;15.70;98.00;;;;;;5036097;28;20458;-68
2023/09/02 02:25:01;;;;;;;3.57;2.50;;;15.70;98.00;;;;;;5053725;28;20457;-69
2023/09/02 02:27:29;;;;;;;3.10;2.43;;;15.80;98.00;;;;;;5053573;28;20523;-69
2023/09/02 02:29:57;;;;;;;9.93;3.80;;;15.80;98.00;;;;;;5053528;28;20947;-69
2023/09/02 02:32:27;;;;;;;3.90;2.50;;;15.80;98.00;;;;;;5053615;28;20468;-69
2023/09/02 02:34:54;;;;;;;2.73;2.17;;;15.90;98.00;;;;;;5053433;28;20461;-69
2023/09/02 02:37:22;;;;;;;5.47;2.20;;;16.10;98.00;;;;;;5052761;28;20480;-69
2023/09/02 02:39:50;;;;;;;5.57;2.53;;;16.30;98.00;;;;;;5035549;28;20489;-68
2023/09/02 02:42:18;;;;;;;7.10;2.63;;;16.40;98.00;;;;;;5052905;28;20446;-69
2023/09/02 02:44:45;;;;;;;5.53;2.87;;;16.30;98.00;;;;;;5053091;28;20512;-69
2023/09/02 02:47:12;;;;;;;4.10;2.70;;;16.30;98.00;;;;;;5035236;28;20793;-69
2023/09/02 02:49:43;;;;;;;8.90;2.90;;;16.20;98.00;;;;;;5053172;28;20450;-69
2023/09/02 02:52:10;;;;;;;4.43;2.63;;;16.00;98.00;;;;;;5035635;28;20800;-69
2023/09/02 02:54:38;;;;;;;6.70;3.10;;;15.90;98.00;;;;;;5053079;28;20457;-68
2023/09/02 02:57:06;;;;;;;3.83;2.53;;;15.80;98.00;;;;;;5052676;28;20928;-69
2023/09/02 02:59:33;;;;;;;6.20;2.83;;;15.60;98.00;;;;;;5051748;28;20485;-69
2023/09/02 03:02:00;;;;;;;4.17;2.47;;;15.60;98.00;;;;;;5052848;28;20504;-69
2023/09/02 03:04:27;;;;;;;3.93;2.60;;;15.60;98.00;;;;;;5052691;28;20462;-68
2023/09/02 03:06:55;;;;;;;4.67;2.90;;;15.70;98.00;;;;;;5052646;28;20449;-69
2023/09/02 03:09:22;;;;;;;6.70;2.70;;;15.80;98.00;;;;;;5052621;28;20445;-68
2023/09/02 03:11:49;;;;;;;4.57;2.57;;;15.80;98.00;;;;;;5052710;28;20473;-68
2023/09/02 03:14:16;;;;;;;3.53;2.27;;;15.70;98.00;;;;;;5053016;28;20453;-69
2023/09/02 03:16:43;;;;;;;5.57;2.60;;;15.70;98.00;;;;;;5052389;28;20461;-69
2023/09/02 03:19:10;;;;;;;3.53;2.23;;;15.70;98.00;;;;;;5052521;28;20485;-68
2023/09/02 03:21:38;;;;;;;4.30;2.70;;;15.70;98.00;;;;;;5052380;28;20959;-69
2023/09/02 03:24:07;;;;;;;4.50;2.50;;;15.80;98.00;;;;;;5052376;28;20454;-68
2023/09/02 03:26:34;;;;;;;3.23;2.30;;;15.90;98.00;;;;;;5052056;28;20461;-68
2023/09/02 03:29:02;;;;;;;11.13;3.00;;;15.90;98.00;;;;;;5052269;28;20450;-68
2023/09/02 03:31:29;;;;;;;3.50;2.30;;;15.80;98.00;;;;;;5052057;28;20450;-69
2023/09/02 03:33:56;;;;;;;3.90;2.57;;;15.60;98.00;;;;;;5034108;28;20465;-69
2023/09/02 03:36:23;;;;;;;3.67;2.43;;;15.60;98.00;;;;;;5051962;28;20450;-68
2023/09/02 03:38:50;;;;;;;4.20;2.40;;;15.50;98.00;;;;;;5034345;28;20485;-69
2023/09/02 03:41:19;;;;;;;2.87;2.17;;;15.50;98.00;;;;;;5051821;28;20479;-68
2023/09/02 03:43:46;;;;;;;4.90;2.30;;;15.40;98.00;;;;;;5051800;28;20522;-69
2023/09/02 03:46:15;;;;;;;6.27;2.63;;;15.30;98.00;;;;;;5051667;28;20461;-69
2023/09/02 03:48:42;;;;;;;3.57;2.10;;;15.30;98.00;;;;;;5051880;28;20448;-68
2023/09/02 03:51:12;;;;;;;3.00;2.20;;;15.30;98.00;;;;;;5051778;28;20461;-69
2023/09/02 03:53:40;;;;;;;2.80;2.10;;;15.40;98.00;;;;;;5051904;28;20485;-69
2023/09/02 03:56:07;;;;;;;2.57;2.13;;;15.50;98.00;;;;;;5051572;28;20489;-69
2023/09/02 03:58:36;;;;;;;2.57;2.00;;;15.50;98.00;;;;;;5051705;28;20847;-69
2023/09/02 04:01:04;;;;;;;2.93;2.27;;;15.50;98.00;;;;;;5051440;28;20446;-68
2023/09/02 04:03:32;;;;;;;2.50;2.07;;;15.30;98.00;;;;;;5051109;28;20490;-68
2023/09/02 04:06:00;;;;;;;6.20;2.23;;;15.40;98.00;;;;;;5033285;28;20975;-68
2023/09/02 04:08:27;;;;;;;2.37;1.97;;;15.40;98.00;;;;;;5051485;28;20454;-69
2023/09/02 04:10:56;;;;;;;3.17;2.13;;;15.50;98.00;;;;;;5051243;28;20462;-69
2023/09/02 04:13:25;;;;;;;3.07;2.23;;;15.60;98.00;;;;;;5051451;28;20870;-69
2023/09/02 04:15:53;;;;;;;3.73;2.20;;;15.60;98.00;;;;;;5051368;28;20858;-69
2023/09/02 04:18:21;;;;;;;2.60;1.90;;;15.60;98.00;;;;;;5051281;28;20453;-69
2023/09/02 04:20:48;;;;;;;3.20;2.20;;;15.60;98.00;;;;;;5051542;28;20517;-68
2023/09/02 04:23:15;;;;;;;7.13;2.40;;;15.60;98.00;;;;;;5051637;28;20441;-69
2023/09/02 04:25:48;;;;;;;4.30;2.57;;;15.50;98.00;;;;;;5051205;28;20480;-69
2023/09/02 04:28:15;;;;;;;3.60;2.40;;;15.50;98.00;;;;;;5051288;28;20457;-69
2023/09/02 04:30:43;;;;;;;4.70;2.30;;;15.40;98.00;;;;;;5050966;28;20994;-69
2023/09/02 04:33:11;;;;;;;4.27;2.30;;;15.30;98.00;;;;;;5051308;28;20548;-69
2023/09/02 04:35:40;;;;;;;6.53;2.37;;;15.30;98.00;;;;;;5051292;28;20817;-69
2023/09/02 04:38:07;;;;;;;2.97;2.23;;;15.20;98.00;;;;;;5051252;28;20496;-68
2023/09/02 04:40:36;;;;;;;5.37;2.50;;;15.10;98.00;;;;;;5050921;28;20488;-69
2023/09/02 04:43:06;;;;;;;3.50;2.37;;;15.30;98.00;;;;;;5050819;28;20504;-68
2023/09/02 04:45:34;;;;;;;4.10;2.60;;;15.40;98.00;;;;;;5050852;28;20957;-68
2023/09/02 04:48:02;;;;;;;3.93;2.60;;;15.40;98.00;;;;;;5033281;28;20509;-68
2023/09/02 04:50:31;;;;;;;3.07;2.20;;;15.40;98.00;;;;;;5029181;28;20457;-69
2023/09/02 04:52:59;;;;;;;3.40;2.37;;;15.50;98.00;;;;;;5051107;28;21010;-69
2023/09/02 04:55:27;;;;;;;4.23;2.70;;;15.60;98.00;;;;;;5041443;28;20449;-68
2023/09/02 04:57:54;;;;;;;5.03;2.33;;;15.40;98.00;;;;;;5031040;28;20458;-68
2023/09/02 05:00:24;;;;;;;3.30;2.47;;;15.20;98.00;;;;;;5030852;28;20490;-68
2023/09/02 05:02:51;;;;;;;3.60;2.47;;;15.10;98.00;;;;;;5031231;28;20481;-68
2023/09/02 05:05:20;;;;;;;4.20;2.50;;;15.10;98.00;;;;;;5030867;28;20965;-68
2023/09/02 05:07:48;;;;;;;3.60;2.57;;;15.00;98.00;;;;;;5030953;28;20443;-68
2023/09/02 05:10:16;;;;;;;3.37;2.33;;;15.10;98.00;;;;;;5030869;28;20512;-68
2023/09/02 05:12:43;;;;;;;2.47;2.00;;;15.10;98.00;;;;;;5031166;28;20455;-69
2023/09/02 05:15:11;;;;;;;3.63;2.17;;;15.10;98.00;;;;;;5031334;28;20849;-68
2023/09/02 05:17:38;;;;;;;2.77;2.03;;;15.10;98.00;;;;;;5031001;28;20490;-69
2023/09/02 05:20:06;;;;;;;3.50;2.23;;;15.00;98.00;;;;;;5030868;28;20552;-69
2023/09/02 05:22:35;;;;;;;2.83;2.03;;;15.10;98.00;;;;;;5033128;28;20451;-68
2023/09/02 05:25:07;;;;;;;4.53;2.23;;;15.10;98.00;;;;;;5034602;28;20450;-69
2023/09/02 05:27:36;;;;;;;3.60;2.10;;;15.10;98.00;;;;;;5035137;28;20453;-68
2023/09/02 05:30:04;;;;;;;3.43;2.40;;;15.20;98.00;;;;;;5034968;28;20446;-68
2023/09/02 05:32:31;;;;;;;3.17;2.40;;;15.20;98.00;;;;;;5034403;28;20541;-68
2023/09/02 05:34:58;;;;;;;5.00;2.87;;;15.20;98.00;;;;;;5034489;28;20585;-68
2023/09/02 05:37:25;;;;;;;4.17;2.40;;;15.10;98.00;;;;;;5034326;28;20532;-68
2023/09/02 05:39:52;;;;;;;2.43;2.00;;;15.10;98.00;;;;;;5034373;28;21008;-68
2023/09/02 05:42:20;;;;;;;3.17;2.33;;;15.20;98.00;;;;;;5034128;28;20451;-68
2023/09/02 05:44:48;;;;;;;2.57;2.03;;;15.40;98.00;;;;;;5034452;28;20964;-68
2023/09/02 05:47:15;;;;;;;3.20;2.00;;;15.50;98.00;;;;;;5034326;28;20450;-68
2023/09/02 05:49:42;;;;;;;3.77;2.40;;;15.40;98.00;;;;;;5034115;28;20820;-68
2023/09/02 05:52:09;;;;;;;2.77;2.10;;;15.40;98.00;;;;;;5034368;28;20454;-68
2023/09/02 05:54:36;;;;;;;4.10;2.10;;;15.60;98.00;;;;;;5034301;28;20976;-67
2023/09/02 05:57:03;;;;;;;3.77;2.37;;;15.60;98.00;;;;;;5034159;28;20850;-73
2023/09/02 05:59:32;;;;;;;3.87;2.60;;;15.70;98.00;;;;;;5034195;28;20520;-72
2023/09/02 06:01:59;;;;;;;3.77;2.40;;;15.80;98.00;;;;;;5033920;28;20949;-72
2023/09/02 06:04:26;;;;;;;3.20;2.27;;;15.90;98.00;;;;;;5034035;28;20549;-72
2023/09/02 06:07:05;;;;;;;6.10;2.50;;;15.90;98.00;;;;;;5034082;28;20461;-72
2023/09/02 06:09:33;;;;;;;4.33;2.20;;;15.80;98.00;;;;;;5034230;28;20865;-72
2023/09/02 06:12:00;;;;;;;3.47;2.47;;;15.80;98.00;;;;;;5032786;28;20451;-72
2023/09/02 06:14:27;;;;;;;4.70;2.77;;;15.90;98.00;;;;;;5033824;28;20453;-72
2023/09/02 06:16:55;;;;;;;3.47;2.70;;;16.00;98.00;;;;;;5033822;28;21007;-72
2023/09/02 06:19:22;;;;;;;2.80;2.37;;;16.00;98.00;;;;;;5033786;28;20458;-72
2023/09/02 06:21:49;;;;;;;4.37;2.60;;;16.10;98.00;;;;;;5033512;28;20458;-72
2023/09/02 06:24:16;;;;;;;3.33;2.57;;;16.10;98.00;;;;;;5033594;28;20454;-72
2023/09/02 06:26:43;;;;;;;4.50;2.90;;;16.20;98.00;;;;;;5033327;28;20457;-72
2023/09/02 06:29:10;;;;;;;3.50;2.50;;;16.40;98.00;;;;;;5033287;28;20462;-72
2023/09/02 06:31:38;;;;;;;5.07;3.30;;;16.50;98.00;;;;;;5033420;28;20455;-72
2023/09/02 06:34:07;;;;;;;4.53;2.50;;;16.40;98.00;;;;;;5032103;28;20447;-72
2023/09/02 06:36:36;;;;;;;7.43;2.90;;;16.40;98.00;;;;;;5033261;28;20545;-72
2023/09/02 06:39:03;;;;;;;5.87;2.67;;;16.40;98.00;;;;;;5032172;28;20538;-72
2023/09/02 06:41:31;;;;;;;3.90;2.50;;;16.30;98.00;;;;;;5033059;28;20486;-72
2023/09/02 06:43:58;;;;;;;4.40;2.87;;;16.30;98.00;;;;;;5033134;28;20486;-72
2023/09/02 06:46:25;;;;;;;5.03;2.87;;;16.50;98.00;;;;;;5033398;28;20874;-72
2023/09/02 06:48:53;;;;;;;6.00;3.43;;;16.50;98.00;;;;;;5033212;28;20462;-72
2023/09/02 06:51:21;;;;;;;5.73;2.77;;;16.60;98.00;;;;;;5033065;28;20465;-72
2023/09/02 06:53:48;;;;;;;3.73;2.73;;;16.70;98.00;;;;;;5033126;28;20454;-72
2023/09/02 06:56:15;;;;;;;5.43;2.97;;;16.70;98.00;;;;;;5032875;28;20914;-72
2023/09/02 06:58:44;;;;;;;5.00;3.30;;;16.90;98.00;;;;;;5033050;28;20455;-72
2023/09/02 07:01:18;;;;;;;3.90;2.90;;;16.90;98.00;;;;;;5033028;28;20490;-72
2023/09/02 07:03:46;;;;;;;5.87;3.10;;;16.80;98.00;;;;;;5033077;28;20455;-72
2023/09/02 07:06:15;;;;;;;4.60;3.03;;;16.90;98.00;;;;;;5033140;28;20450;-72
2023/09/02 07:08:44;;;;;;;3.93;2.70;;;17.00;98.00;;;;;;5032862;28;20528;-72
2023/09/02 07:11:11;;;;;;;4.40;3.07;;;17.20;98.00;;;;;;5031320;28;20969;-72
2023/09/02 07:13:39;;;;;;;11.43;3.47;;;17.30;98.00;;;;;;5032687;28;20454;-72
2023/09/02 07:16:07;;;;;;;5.53;3.17;;;17.30;98.00;;;;;;5032610;28;20474;-72
2023/09/02 07:18:35;;;;;;;4.00;2.50;;;17.40;98.00;;;;;;5032532;28;20520;-72
2023/09/02 07:21:02;;;;;;;3.40;2.50;;;17.50;98.00;;;;;;5031177;28;20479;-72
2023/09/02 07:23:30;;;;;;;4.93;3.17;;;17.50;98.00;;;;;;5032518;28;21052;-72
2023/09/02 07:26:05;;;;;;;4.40;2.63;;;17.60;98.00;;;;;;5032458;28;20453;-72
2023/09/02 07:28:33;;;;;;;6.70;2.90;;;17.70;98.00;;;;;;5032349;28;20446;-72
2023/09/02 07:31:02;;;;;;;9.20;2.80;;;17.80;98.00;;;;;;5031108;28;20988;-72
2023/09/02 07:33:30;;;;;;;6.10;2.60;;;17.90;98.00;;;;;;5032181;28;20535;-72
2023/09/02 07:35:59;;;;;;;6.87;2.87;;;17.90;98.00;;;;;;5032248;28;20454;-72
2023/09/02 07:38:26;;;;;;;3.47;2.50;;;18.00;98.00;;;;;;5032569;28;20455;-72
2023/09/02 07:40:53;;;;;;;5.07;2.57;;;18.20;98.00;;;;;;5032028;28;20489;-72
2023/09/02 07:43:21;;;;;;;3.27;2.60;;;18.40;98.00;;;;;;5030857;28;21062;-72
2023/09/02 07:45:50;;;;;;;3.70;2.40;;;18.60;98.00;;;;;;5013431;28;20459;-72
2023/09/02 07:48:17;;;;;;;6.53;3.50;;;18.60;98.00;;;;;;5032059;28;20485;-72
2023/09/02 07:50:44;;;;;;;10.43;2.57;;;18.70;98.00;;;;;;5031546;28;20447;-72
2023/09/02 07:53:21;;;;;;;3.63;2.57;;;18.80;98.00;;;;;;5014527;28;21027;-72
2023/09/02 07:55:48;;;;;;;3.73;2.73;;;19.00;98.00;;;;;;5031972;28;20455;-72
2023/09/02 07:58:15;;;;;;;7.07;2.80;;;19.10;98.00;;;;;;5031676;28;20454;-72
2023/09/02 08:00:43;;;;;;;3.20;2.40;;;19.10;98.00;;;;;;5031695;28;20556;-72
2023/09/02 08:03:10;;;;;;;4.13;2.47;;;19.30;98.00;;;;;;5031581;28;20450;-72
2023/09/02 08:05:40;;;;;;;3.07;2.47;;;19.40;98.00;;;;;;5031445;28;20454;-72
2023/09/02 08:08:08;;;;;;;4.33;2.50;;;19.60;98.00;;;;;;5031561;28;20455;-72
2023/09/02 08:10:35;;;;;;;3.40;2.67;;;19.70;98.00;;;;;;5029512;28;20876;-72
2023/09/02 08:13:02;;;;;;;3.43;2.57;;;19.70;98.00;;;;;;5031661;28;20490;-72
2023/09/02 08:15:30;;;;;;;3.37;2.50;;;19.80;98.00;;;;;;5031064;28;20894;-72
2023/09/02 08:17:58;;;;;;;4.67;2.67;;;19.90;98.00;;;;;;5031210;28;20576;-66
2023/09/02 08:20:29;;;;;;;4.73;2.70;;;20.10;98.00;;;;;;5031439;28;20556;-69
2023/09/02 08:22:56;;;;;;;2.90;2.30;;;20.30;98.00;;;;;;5031642;28;20454;-70
2023/09/02 08:25:24;;;;;;;4.90;2.70;;;20.40;98.00;;;;;;5031362;28;20860;-69
2023/09/02 08:27:51;;;;;;;3.57;2.50;;;20.50;98.00;;;;;;5031550;28;20451;-69
2023/09/02 08:30:18;;;;;;;4.90;2.50;;;20.50;98.00;;;;;;5031390;28;20454;-69
2023/09/02 08:32:45;;;;;;;3.30;2.40;;;20.60;98.00;;;;;;5031382;28;20450;-69
2023/09/02 08:35:13;;;;;;;9.13;2.40;;;20.80;98.00;;;;;;5031507;28;20872;-69
2023/09/02 08:37:41;;;;;;;4.17;2.60;;;21.00;98.00;;;;;;5031169;28;20668;-69
2023/09/02 08:40:09;;;;;;;4.30;2.50;;;21.10;98.00;;;;;;5031284;28;20442;-69
2023/09/02 08:42:36;;;;;;;6.30;3.00;;;21.20;98.00;;;;;;5031033;28;20836;-68
2023/09/02 08:45:08;;;;;;;3.47;2.47;;;21.40;98.00;;;;;;5031426;28;20512;-68
2023/09/02 08:47:38;;;;;;;2.83;2.10;;;21.50;98.00;;;;;;5031203;28;20466;-69
2023/09/02 08:50:08;;;;;;;3.00;2.60;;;21.60;98.00;;;;;;5031282;28;20453;-69
2023/09/02 08:52:37;;;;;;;2.40;1.80;;;21.70;98.00;;;;;;5030977;28;20549;-69
2023/09/02 08:55:05;;;;;;;3.50;2.60;;;21.80;98.00;;;;;;5031488;28;20783;-68
2023/09/02 08:57:34;;;;;;;4.60;2.33;;;21.90;98.00;;;;;;5247910;22;20477;-69
2023/09/02 09:00:01;;;;;;;5.70;2.37;;;21.90;98.00;;;;;;5056073;28;20948;-68
2023/09/02 09:02:37;;;;;;;3.37;2.63;;;22.00;98.00;;;;;;5055503;28;20481;-69
2023/09/02 09:05:13;;;;;;;3.23;2.27;;;22.10;98.00;;;;;;5055772;28;20467;-68
2023/09/02 09:07:42;;;;;;;5.90;2.40;;;22.10;98.00;;;;;;5055738;28;20445;-67
2023/09/02 09:10:11;;;;;;;3.20;2.63;;;22.30;98.00;;;;;;5055339;28;20460;-68
2023/09/02 09:12:39;;;;;;;6.63;3.00;;;22.30;98.00;;;;;;5055484;28;20454;-66
2023/09/02 09:15:10;;;;;;;3.70;2.37;;;22.50;98.00;;;;;;5055412;28;20453;-67
2023/09/02 09:17:37;;;;;;;5.60;2.73;;;22.60;98.00;;;;;;5055170;28;20881;-68
2023/09/02 09:20:05;;;;;;;3.70;2.40;;;22.80;98.00;;;;;;5053759;28;20456;-67
2023/09/02 09:22:38;;;;;;;3.03;2.20;;;23.00;98.00;;;;;;5054210;28;20488;-66
2023/09/02 09:25:16;;;;;;;8.00;2.43;;;23.10;98.00;;;;;;5055364;28;20456;-68
2023/09/02 09:27:43;;;;;;;4.47;2.43;;;23.20;98.00;;;;;;5055063;28;20938;-69
2023/09/02 09:30:29;;;;;;;3.23;2.30;;;23.40;98.00;;;;;;5055021;28;20450;-68
2023/09/02 09:33:01;;;;;;;3.20;2.47;;;23.50;98.00;;;;;;5055090;28;20532;-67
2023/09/02 09:35:28;;;;;;;4.83;2.40;;;23.60;98.00;;;;;;5054447;28;21134;-68
2023/09/02 09:37:56;;;;;;;3.63;2.40;;;23.80;98.00;;;;;;5054053;28;20472;-67
2023/09/02 09:40:38;;;;;;;4.63;2.50;;;23.90;98.00;;;;;;5052665;28;20449;-70
2023/09/02 09:43:17;;;;;;;4.20;2.80;;;24.10;98.00;;;;;;5053978;28;20441;-69
2023/09/02 09:45:50;;;;;;;4.37;2.50;;;24.30;98.00;;;;;;5053567;28;20457;-71
2023/09/02 09:48:17;;;;;;;4.20;2.40;;;24.40;98.00;;;;;;5054645;28;20515;-71
2023/09/02 09:50:44;;;;;;;3.90;2.73;;;24.50;98.00;;;;;;5054372;28;20546;-72
2023/09/02 09:53:19;;;;;;;4.13;2.33;;;24.70;98.00;;;;;;5054055;28;20454;-71
2023/09/02 09:55:48;;;;;;;3.07;2.37;;;24.80;98.00;;;;;;5054004;28;20449;-72
2023/09/02 09:58:23;;;;;;;3.20;2.53;;;25.00;98.00;;;;;;5054433;28;20512;-72
2023/09/02 10:00:52;;;;;;;5.77;2.83;;;25.10;98.00;;;;;;5054480;28;20894;-72
2023/09/02 10:03:30;;;;;;;8.40;2.87;;;25.20;98.00;;;;;;5054579;28;20536;-72
2023/09/02 10:05:59;;;;;;;4.80;2.40;;;25.40;98.00;;;;;;5054495;28;20536;-72
2023/09/02 10:08:26;;;;;;;3.37;2.60;;;25.50;98.00;;;;;;5054173;28;20870;-72
2023/09/02 10:10:55;;;;;;;3.30;2.37;;;25.60;98.00;;;;;;5054443;28;20453;-72
2023/09/02 10:13:22;;;;;;;4.03;2.70;;;25.70;98.00;;;;;;5054449;28;20450;-72
2023/09/02 10:15:50;;;;;;;4.00;2.50;;;25.90;98.00;;;;;;5054296;28;20457;-72
2023/09/02 10:18:18;;;;;;;3.63;2.40;;;26.00;98.00;;;;;;5054427;28;20540;-72
2023/09/02 10:20:46;;;;;;;2.83;2.27;;;26.20;98.00;;;;;;5054056;28;20994;-72
2023/09/02 10:23:14;;;;;;;3.80;2.33;;;26.40;98.00;;;;;;5054363;28;20480;-72
2023/09/02 10:25:46;;;;;;;4.70;2.33;;;26.50;98.00;;;;;;5054225;28;20450;-72
2023/09/02 10:28:24;;;;;;;5.40;2.40;;;26.60;98.00;;;;;;5054436;28;20430;-72
2023/09/02 10:30:56;;;;;;;3.53;2.17;;;26.70;98.00;;;;;;5054033;28;20465;-72
2023/09/02 10:33:32;;;;;;;4.23;2.50;;;26.90;98.00;;;;;;5054196;28;20454;-72
2023/09/02 10:36:03;;;;;;;3.40;2.30;;;27.10;98.00;;;;;;5054181;28;20893;-72
2023/09/02 10:38:34;;;;;;;3.13;2.37;;;27.30;98.00;;;;;;5054253;28;20457;-72
2023/09/02 10:41:08;;;;;;;3.63;2.17;;;27.40;98.00;;;;;;5054121;28;20944;-72
2023/09/02 10:43:37;;;;;;;2.30;1.90;;;27.40;98.00;;;;;;5054318;28;20987;-72
2023/09/02 10:46:05;;;;;;;2.60;2.13;;;27.60;98.00;;;;;;5053774;28;20928;-72
2023/09/02 10:48:36;;;;;;;4.50;2.40;;;27.70;98.00;;;;;;5053925;28;20492;-72
2023/09/02 10:51:04;;;;;;;2.10;1.90;;;27.90;98.00;;;;;;5053650;28;20457;-72
2023/09/02 10:53:57;;;;;;;2.67;2.00;;;28.10;98.00;;;;;;5053812;28;20454;-72
2023/09/02 10:56:30;;;;;;;3.53;1.80;;;28.10;98.00;;;;;;5053534;28;21023;-72
2023/09/02 10:58:59;;;;;;;2.57;1.90;;;28.20;98.00;;;;;;5053464;28;20523;-72
2023/09/02 11:01:29;;;;;;;3.73;2.20;;;28.40;98.00;;;;;;5053377;28;20490;-69
2023/09/02 11:03:56;;;;;;;2.10;2.00;;;28.60;98.00;;;;;;5053602;28;20457;-66
2023/09/02 11:06:24;;;;;;;2.90;2.10;;;28.80;97.30;;;;;;5053176;28;20788;-66
2023/09/02 11:08:53;;;;;;;2.13;1.90;;;29.00;98.00;;;;;;5052354;28;20460;-67
2023/09/02 11:11:21;;;;;;;4.27;2.20;;;29.20;97.80;;;;;;5053249;28;20462;-66
2023/09/02 11:14:21;;;;;;;2.60;2.00;;;29.40;98.00;;;;;;5053341;28;20454;-73
2023/09/02 11:17:21;;;;;;;1.90;1.90;;;29.50;95.50;;;;;;5051858;28;21002;-71
2023/09/02 11:20:01;;;;;;;1.90;1.80;;;29.60;92.70;;;;;;5052316;28;20975;-71
2023/09/02 11:22:51;;;;;;;2.33;1.90;;;29.70;92.80;;;;;;5052970;28;20489;-71
2023/09/02 11:25:36;;;;;;;2.70;1.90;;;30.00;94.70;;;;;;5053133;28;21095;-72
2023/09/02 11:28:05;;;;;;;2.50;2.00;;;30.10;93.00;;;;;;5052688;28;20503;-70
2023/09/02 11:30:36;;;;;;;2.20;1.73;;;30.30;90.40;;;;;;5053060;28;20461;-65
2023/09/02 11:33:04;;;;;;;1.80;1.67;;;30.40;91.20;;;;;;5052982;28;20499;-65
2023/09/02 11:35:32;;;;;;;2.60;1.97;;;30.60;91.30;;;;;;5052827;28;20462;-66
2023/09/02 11:38:00;;;;;;;3.30;1.93;;;30.70;90.50;;;;;;5052597;28;20446;-65
2023/09/02 11:40:28;;;;;;;2.50;1.90;;;30.80;91.60;;;;;;5052805;28;20457;-66
2023/09/02 11:42:59;;;;;;;3.10;2.20;;;30.90;91.70;;;;;;5051519;28;20493;-67
2023/09/02 11:45:27;;;;;;;2.37;1.80;;;30.90;89.00;;;;;;5052677;28;20450;-67
2023/09/02 11:47:56;;;;;;;2.90;2.07;;;31.10;89.60;;;;;;5052391;28;20454;-67
2023/09/02 11:50:24;;;;;;;2.30;1.87;;;31.10;92.60;;;;;;5051589;28;20465;-66
2023/09/02 11:52:54;;;;;;;2.73;2.00;;;31.40;86.40;;;;;;5052582;28;20927;-69
2023/09/02 11:55:21;;;;;;;2.27;1.90;;;31.30;89.80;;;;;;5052541;28;20511;-67
2023/09/02 11:57:49;;;;;;;2.93;1.80;;;31.40;84.00;;;;;;5052366;28;20462;-66
2023/09/02 12:00:18;;;;;;;2.80;2.00;;;31.40;83.90;;;;;;5052611;28;20499;-66
2023/09/02 12:02:45;;;;;;;2.97;2.00;;;31.50;84.60;;;;;;5052137;28;20485;-67
2023/09/02 12:05:15;;;;;;;3.30;2.07;;;31.60;87.20;;;;;;5052008;28;20450;-67
2023/09/02 12:07:44;;;;;;;2.13;1.70;;;31.50;85.60;;;;;;5051908;28;20442;-67
2023/09/02 12:10:13;;;;;;;2.50;2.00;;;31.70;86.10;;;;;;5052269;28;20465;-66
2023/09/02 12:12:42;;;;;;;2.30;1.70;;;31.90;87.30;;;;;;5052325;28;20461;-66
2023/09/02 12:15:12;;;;;;;2.70;1.97;;;32.10;84.50;;;;;;5052283;28;20529;-66
2023/09/02 12:17:40;;;;;;;3.13;2.00;;;32.20;84.50;;;;;;5052326;28;21002;-67
2023/09/02 12:20:08;;;;;;;2.67;1.83;;;32.30;86.10;;;;;;5052233;28;20465;-66
2023/09/02 12:22:37;;;;;;;2.33;1.87;;;32.50;84.80;;;;;;5052215;28;20486;-66
2023/09/02 12:25:12;;;;;;;2.50;2.10;;;32.50;86.80;;;;;;5052201;28;20461;-63
2023/09/02 12:27:39;;;;;;;4.20;1.93;;;32.50;85.50;;;;;;5052143;28;20460;-72
2023/09/02 12:30:08;;;;;;;2.00;1.80;;;32.40;84.90;;;;;;5052268;28;20469;-71
2023/09/02 12:32:35;;;;;;;2.07;1.93;;;32.30;83.90;;;;;;5052220;28;20545;-71
2023/09/02 12:35:08;;;;;;;2.60;2.00;;;32.40;86.30;;;;;;5050774;28;21022;-71
2023/09/02 12:37:37;;;;;;;2.20;1.97;;;32.50;83.10;;;;;;5051971;28;20548;-72
2023/09/02 12:40:11;;;;;;;2.60;2.20;;;32.60;83.70;;;;;;5051770;28;20453;-72
2023/09/02 12:42:39;;;;;;;2.20;1.90;;;32.60;82.90;;;;;;5051528;28;20481;-71
2023/09/02 12:45:09;;;;;;;2.23;2.00;;;32.60;83.60;;;;;;5051487;28;20863;-71
2023/09/02 12:47:38;;;;;;;4.10;2.10;;;32.80;83.50;;;;;;5051448;28;20863;-71
2023/09/02 12:50:06;;;;;;;2.23;2.00;;;33.00;84.00;;;;;;5051670;28;20453;-71
2023/09/02 12:52:34;;;;;;;3.03;2.10;;;33.10;81.60;;;;;;5051614;28;20457;-72
2023/09/02 12:55:04;;;;;;;2.20;2.07;;;33.20;81.80;;;;;;5051680;28;20457;-72